Time;durP1;ratioP1;P1;durP2;ratioP2;P2;SDS_P1;SDS_P2;PMS_P1;PMS_P2;Temp;Humidity;BMP_temperature;BMP_pressure;BME280_temperature;BME280_humidity;BME280_pressure;Samples;Min_cycle;Max_cycle;Signal;HPM_P1;HPM_P2
2022/03/01 08:00:06;;;;;;;21.92;12.25;;;3.50;99.90;;;;;;5090380;27;20401;-58
2022/03/01 08:02:31;;;;;;;21.45;13.13;;;3.60;99.90;;;;;;5079185;28;20052;-57
2022/03/01 08:04:57;;;;;;;20.48;12.65;;;3.60;99.90;;;;;;5078910;28;20055;-57
2022/03/01 08:07:24;;;;;;;21.25;12.90;;;3.70;99.90;;;;;;5066046;28;20080;-58
2022/03/01 08:09:49;;;;;;;;;;;3.70;99.90;;;;;;5061437;28;20044;-54
2022/03/01 08:12:15;;;;;;;20.27;12.68;;;3.80;99.90;;;;;;5061416;28;19920;-57
2022/03/01 08:14:40;;;;;;;23.27;13.15;;;3.80;99.90;;;;;;5064079;28;20068;-57
2022/03/01 08:17:06;;;;;;;22.95;13.30;;;3.90;99.90;;;;;;5060664;28;20072;-58
2022/03/01 08:19:32;;;;;;;22.10;13.55;;;4.00;99.90;;;;;;5057258;28;20045;-58
2022/03/01 08:21:57;;;;;;;23.27;14.25;;;4.00;99.90;;;;;;5060612;28;20136;-58
2022/03/01 08:24:23;;;;;;;22.08;13.48;;;4.10;99.90;;;;;;5062839;28;20048;-58
2022/03/01 08:26:49;;;;;;;22.63;13.70;;;4.10;99.90;;;;;;5052894;28;20045;-58
2022/03/01 08:29:16;;;;;;;20.63;13.23;;;4.20;99.90;;;;;;5055091;28;20041;-57
2022/03/01 08:31:42;;;;;;;19.17;12.93;;;4.20;99.90;;;;;;5055424;28;20049;-58
2022/03/01 08:34:09;;;;;;;20.55;13.55;;;;;;;;;;5090030;28;20055;-58
2022/03/01 08:36:34;;;;;;;20.23;12.70;;;4.50;99.90;;;;;;5062149;28;20049;-58
2022/03/01 08:39:00;;;;;;;22.67;13.48;;;4.50;99.90;;;;;;5062228;28;20037;-57
2022/03/01 08:41:26;;;;;;;21.50;13.10;;;4.50;99.90;;;;;;5062694;28;20048;-58
2022/03/01 08:43:51;;;;;;;22.95;13.88;;;4.60;99.90;;;;;;5062544;28;20041;-58
2022/03/01 08:46:17;;;;;;;20.98;13.07;;;4.60;99.90;;;;;;5060011;28;20076;-58
2022/03/01 08:48:44;;;;;;;20.45;13.32;;;4.70;99.90;;;;;;5056132;28;20045;-58
2022/03/01 08:51:13;;;;;;;21.77;14.77;;;4.70;99.90;;;;;;5056001;28;20041;-58
2022/03/01 08:53:39;;;;;;;19.20;13.32;;;4.80;99.90;;;;;;5059044;28;20053;-57
2022/03/01 08:56:05;;;;;;;;;;;4.90;99.90;;;;;;5051362;28;20040;-57
2022/03/01 08:58:31;;;;;;;21.40;13.63;;;4.90;99.90;;;;;;5054408;28;19966;-57
2022/03/01 09:00:56;;;;;;;19.20;12.57;;;4.90;99.90;;;;;;5059993;28;20481;-57
2022/03/01 09:03:26;;;;;;;29.83;13.43;;;4.90;99.90;;;;;;5058098;28;20055;-57
2022/03/01 09:05:52;;;;;;;21.05;12.88;;;4.90;99.90;;;;;;5060100;28;20048;-57
2022/03/01 09:08:17;;;;;;;21.60;14.27;;;4.90;99.90;;;;;;5057870;28;20041;-57
2022/03/01 09:10:43;;;;;;;23.30;13.82;;;4.90;99.90;;;;;;5050745;28;20137;-57
2022/03/01 09:13:10;;;;;;;20.58;13.50;;;4.90;99.90;;;;;;5045698;28;20125;-57
2022/03/01 09:15:35;;;;;;;21.77;14.60;;;4.90;99.90;;;;;;5045096;28;20480;-57
2022/03/01 09:18:03;;;;;;;21.05;13.68;;;4.90;99.90;;;;;;5046677;28;20045;-57
2022/03/01 09:20:30;;;;;;;20.75;13.27;;;4.90;99.90;;;;;;5044784;28;20045;-57
2022/03/01 09:22:57;;;;;;;21.92;13.82;;;5.00;99.90;;;;;;5047372;28;20512;-59
2022/03/01 09:25:23;;;;;;;21.75;14.18;;;5.00;99.90;;;;;;5056017;28;20060;-57
2022/03/01 09:27:49;;;;;;;36.10;22.73;;;5.10;99.90;;;;;;5055892;28;20094;-57
2022/03/01 09:30:16;;;;;;;35.72;21.33;;;5.10;99.90;;;;;;5055476;28;20115;-57
2022/03/01 09:32:43;;;;;;;25.20;16.08;;;5.10;99.90;;;;;;5054851;28;20186;-58
2022/03/01 09:35:09;;;;;;;20.95;14.15;;;5.20;99.90;;;;;;5054793;28;20508;-57
2022/03/01 09:37:35;;;;;;;22.35;15.35;;;5.30;99.90;;;;;;5088000;28;20083;-55
2022/03/01 09:40:03;;;;;;;20.50;14.10;;;5.30;99.90;;;;;;5055692;28;20095;-57
2022/03/01 09:42:29;;;;;;;21.77;14.18;;;5.40;99.90;;;;;;5055118;28;20084;-57
2022/03/01 09:44:55;;;;;;;20.33;14.35;;;5.50;99.90;;;;;;5051394;28;20046;-57
2022/03/01 09:47:22;;;;;;;22.15;14.27;;;5.50;99.90;;;;;;5045247;28;20072;-57
2022/03/01 09:49:48;;;;;;;21.20;14.20;;;5.60;99.90;;;;;;5049162;28;20119;-58
2022/03/01 09:52:15;;;;;;;;;;;5.70;99.90;;;;;;5040471;28;20053;-58
2022/03/01 09:54:41;;;;;;;21.10;13.57;;;5.80;99.90;;;;;;5034178;28;19928;-58
2022/03/01 09:57:07;;;;;;;21.63;14.32;;;5.80;99.90;;;;;;5032811;28;20444;-58
2022/03/01 09:59:33;;;;;;;22.27;13.63;;;6.00;99.90;;;;;;5034356;28;20500;-57
2022/03/01 10:01:59;;;;;;;;;;;6.00;99.90;;;;;;5035208;28;20053;-57
2022/03/01 10:04:25;;;;;;;20.65;13.68;;;6.10;99.90;;;;;;5035139;28;19927;-58
2022/03/01 10:06:51;;;;;;;;;;;6.20;99.90;;;;;;5035471;28;20121;-58
2022/03/01 10:09:23;;;;;;;21.40;13.32;;;6.20;99.90;;;;;;5034425;28;19972;-57
2022/03/01 10:11:50;;;;;;;21.10;13.55;;;6.30;99.90;;;;;;5032672;28;20398;-58
2022/03/01 10:14:30;;;;;;;24.20;14.27;;;6.30;99.90;;;;;;5034944;28;20038;-59
2022/03/01 10:16:56;;;;;;;20.38;13.50;;;6.40;99.90;;;;;;5034916;28;20351;-58
2022/03/01 10:19:22;;;;;;;21.02;13.63;;;6.40;99.90;;;;;;5034771;28;20052;-57
2022/03/01 10:21:59;;;;;;;22.38;14.15;;;6.40;99.90;;;;;;5033799;28;20037;-57
2022/03/01 10:24:26;;;;;;;22.20;13.88;;;6.30;99.90;;;;;;5034809;28;20045;-57
2022/03/01 10:27:05;;;;;;;22.10;14.45;;;6.40;99.90;;;;;;5034718;28;20045;-59
2022/03/01 10:29:32;;;;;;;21.42;14.35;;;6.40;99.90;;;;;;5033989;28;20057;-60
2022/03/01 10:32:18;;;;;;;20.52;14.80;;;6.40;99.90;;;;;;5034424;28;20059;-58
2022/03/01 10:35:03;;;;;;;23.08;15.65;;;6.50;99.90;;;;;;5034553;28;20049;-58
2022/03/01 10:37:30;;;;;;;18.67;13.95;;;6.50;99.90;;;;;;5034386;28;20045;-58
2022/03/01 10:40:20;;;;;;;22.95;14.63;;;6.50;99.90;;;;;;5033148;28;20049;-60
2022/03/01 10:43:09;;;;;;;20.73;14.30;;;6.60;99.90;;;;;;5034704;28;20083;-60
2022/03/01 10:45:43;;;;;;;22.83;14.20;;;6.60;99.90;;;;;;5034526;28;20077;-59
2022/03/01 10:48:12;;;;;;;21.98;14.82;;;6.60;99.90;;;;;;5034498;28;20091;-59
2022/03/01 10:50:39;;;;;;;22.95;14.38;;;6.70;99.90;;;;;;5034483;28;20091;-58
2022/03/01 10:53:06;;;;;;;22.15;14.10;;;6.80;99.90;;;;;;5034293;28;20129;-58
2022/03/01 10:55:34;;;;;;;25.73;14.77;;;6.80;99.90;;;;;;5034234;28;20041;-58
2022/03/01 10:58:02;;;;;;;25.58;14.75;;;;;;;;;;5034109;28;20072;-58
2022/03/01 11:00:28;;;;;;;25.10;15.52;;;6.90;99.90;;;;;;5034218;28;20041;-58
2022/03/01 11:02:54;;;;;;;22.20;15.57;;;6.90;99.90;;;;;;5034324;28;20037;-59
2022/03/01 11:05:21;;;;;;;27.77;17.45;;;6.80;99.90;;;;;;5034154;28;20045;-58
2022/03/01 11:07:49;;;;;;;28.95;17.98;;;6.80;99.90;;;;;;5033841;28;20140;-59
2022/03/01 11:10:18;;;;;;;30.60;18.63;;;6.90;99.90;;;;;;5033584;28;20049;-58
2022/03/01 11:12:47;;;;;;;26.77;16.90;;;6.70;99.90;;;;;;5033629;28;20081;-57
2022/03/01 11:15:40;;;;;;;28.45;16.90;;;6.70;99.90;;;;;;5066155;28;20057;-57
2022/03/01 11:18:37;;;;;;;24.23;16.63;;;6.70;99.90;;;;;;5031694;28;20049;-57
2022/03/01 11:21:05;;;;;;;24.40;15.18;;;6.70;99.90;;;;;;5034434;28;20414;-58
2022/03/01 11:23:32;;;;;;;25.45;16.10;;;6.60;99.90;;;;;;5034723;28;20446;-58
2022/03/01 11:26:13;;;;;;;23.83;15.50;;;6.60;99.90;;;;;;5032422;28;20052;-58
2022/03/01 11:28:42;;;;;;;23.92;15.18;;;6.60;99.90;;;;;;5032783;28;20481;-57
2022/03/01 11:31:26;;;;;;;25.40;16.35;;;6.60;99.90;;;;;;5065883;28;20049;-58
2022/03/01 11:34:00;;;;;;;24.38;17.15;;;6.60;99.90;;;;;;5033560;28;20133;-58
2022/03/01 11:36:30;;;;;;;25.08;16.95;;;6.50;99.90;;;;;;5065840;28;20085;-59
2022/03/01 11:39:07;;;;;;;26.50;15.85;;;;;;;;;;5033492;28;20508;-60
2022/03/01 11:41:41;;;;;;;26.33;16.48;;;6.40;99.90;;;;;;5033805;28;20046;-58
2022/03/01 11:44:08;;;;;;;28.23;17.38;;;6.50;99.90;;;;;;5033408;28;20489;-57
2022/03/01 11:46:42;;;;;;;29.05;18.88;;;6.50;99.90;;;;;;5032459;28;20490;-57
2022/03/01 11:49:08;;;;;;;29.30;17.50;;;6.50;99.90;;;;;;5033396;28;20045;-58
2022/03/01 11:51:54;;;;;;;30.55;18.30;;;6.50;99.90;;;;;;5033470;28;20183;-58
2022/03/01 11:54:24;;;;;;;27.30;18.00;;;6.50;99.90;;;;;;5066088;28;20057;-58
2022/03/01 11:56:52;;;;;;;30.63;19.48;;;6.60;99.90;;;;;;5033244;28;20052;-58
2022/03/01 11:59:18;;;;;;;30.33;19.48;;;6.60;99.90;;;;;;5033110;28;20099;-60
2022/03/01 12:01:45;;;;;;;;;;;6.60;99.90;;;;;;5033343;28;20052;-59
2022/03/01 12:04:11;;;;;;;33.78;20.00;;;6.60;99.90;;;;;;5033336;28;19967;-59
2022/03/01 12:06:39;;;;;;;29.27;20.05;;;6.50;99.90;;;;;;5033295;28;20053;-60
2022/03/01 12:09:07;;;;;;;32.80;21.02;;;6.50;99.90;;;;;;5033343;28;20038;-59
2022/03/01 12:11:38;;;;;;;32.15;20.42;;;6.60;99.90;;;;;;5032922;28;20490;-59
2022/03/01 12:14:14;;;;;;;31.75;20.95;;;6.60;99.90;;;;;;5033339;28;20091;-59
2022/03/01 12:16:40;;;;;;;37.72;21.27;;;6.60;99.90;;;;;;5066000;28;20387;-59
2022/03/01 12:19:11;;;;;;;35.22;20.95;;;6.70;99.90;;;;;;5033767;28;20037;-60
2022/03/01 12:21:38;;;;;;;34.60;21.63;;;6.60;99.90;;;;;;5015963;28;20041;-59
2022/03/01 12:24:04;;;;;;;32.67;21.48;;;6.60;99.90;;;;;;5033207;28;20049;-58
2022/03/01 12:26:31;;;;;;;36.13;22.00;;;6.70;99.90;;;;;;5032810;28;20052;-58
2022/03/01 12:28:58;;;;;;;;;;;6.70;99.90;;;;;;5033549;28;20128;-60
2022/03/01 12:31:27;;;;;;;28.98;19.10;;;6.70;99.90;;;;;;5033073;28;20293;-59
2022/03/01 12:33:56;;;;;;;31.85;20.33;;;6.70;99.90;;;;;;5033375;28;20045;-59
2022/03/01 12:36:36;;;;;;;30.17;20.23;;;6.80;99.90;;;;;;5033246;28;20052;-58
2022/03/01 12:39:02;;;;;;;31.60;19.98;;;6.80;99.90;;;;;;5033060;28;20049;-58
2022/03/01 12:41:28;;;;;;;29.77;19.70;;;6.80;99.90;;;;;;5032606;28;20133;-58
2022/03/01 12:43:58;;;;;;;33.35;20.60;;;6.90;99.90;;;;;;5031573;28;20125;-59
2022/03/01 12:46:26;;;;;;;32.83;20.45;;;7.00;99.90;;;;;;5035860;28;20103;-59
2022/03/01 12:48:53;;;;;;;34.03;20.90;;;7.30;99.90;;;;;;5037552;28;20041;-59
2022/03/01 12:51:20;;;;;;;28.70;19.40;;;7.00;99.90;;;;;;5036373;28;20571;-59
2022/03/01 12:53:53;;;;;;;32.72;20.55;;;7.00;99.90;;;;;;5036750;28;20106;-59
2022/03/01 12:56:22;;;;;;;34.35;21.13;;;7.00;99.90;;;;;;5069201;28;20076;-58
2022/03/01 12:58:48;;;;;;;38.80;19.23;;;;;;;;;;5035247;28;20054;-58
2022/03/01 13:01:14;;;;;;;36.17;20.15;;;;;;;;;;5036515;28;20140;-58
2022/03/01 13:03:40;;;;;;;33.58;21.70;;;7.00;99.90;;;;;;5036544;28;20045;-58
2022/03/01 13:06:10;;;;;;;38.47;22.27;;;7.00;99.90;;;;;;5035396;28;20060;-58
2022/03/01 13:08:38;;;;;;;34.42;21.60;;;7.00;99.90;;;;;;5036379;28;20152;-60
2022/03/01 13:11:09;;;;;;;36.58;21.35;;;7.10;99.90;;;;;;5035324;28;20061;-59
2022/03/01 13:13:49;;;;;;;35.20;20.95;;;7.00;99.90;;;;;;5035586;28;20088;-59
2022/03/01 13:16:20;;;;;;;35.67;22.15;;;7.00;99.90;;;;;;5036486;28;20045;-58
2022/03/01 13:19:13;;;;;;;32.90;21.52;;;6.90;99.90;;;;;;5036181;28;20124;-61
2022/03/01 13:21:52;;;;;;;34.28;21.48;;;6.80;99.90;;;;;;5032779;28;20057;-59
2022/03/01 13:24:25;;;;;;;36.45;22.60;;;6.80;99.90;;;;;;5036461;28;20049;-59
2022/03/01 13:26:52;;;;;;;35.53;22.13;;;6.80;99.90;;;;;;5036005;28;20068;-58
2022/03/01 13:29:26;;;;;;;34.53;22.02;;;6.70;99.90;;;;;;5036041;28;20052;-58
2022/03/01 13:32:03;;;;;;;35.17;21.80;;;;;;;;;;5068536;28;20056;-59
2022/03/01 13:34:29;;;;;;;34.50;22.38;;;6.80;99.90;;;;;;5035930;28;20429;-58
2022/03/01 13:36:55;;;;;;;31.40;20.30;;;6.90;99.90;;;;;;5067989;28;20049;-59
2022/03/01 13:39:21;;;;;;;36.35;22.23;;;6.80;99.90;;;;;;5035767;28;20041;-59
2022/03/01 13:41:51;;;;;;;;;;;6.80;99.90;;;;;;5036148;28;20393;-59
2022/03/01 13:44:22;;;;;;;37.15;22.27;;;6.90;99.90;;;;;;5034772;28;20014;-59
2022/03/01 13:47:19;;;;;;;32.88;21.65;;;6.90;99.90;;;;;;5034694;28;20045;-59
2022/03/01 13:49:55;;;;;;;34.83;22.23;;;7.00;99.90;;;;;;5034346;28;20140;-59
2022/03/01 13:52:26;;;;;;;36.55;22.90;;;7.00;99.90;;;;;;5035563;28;20049;-59
2022/03/01 13:54:59;;;;;;;33.92;22.92;;;7.00;99.90;;;;;;5035528;28;20128;-59
2022/03/01 13:57:31;;;;;;;32.97;21.77;;;7.10;99.90;;;;;;5034206;28;20057;-59
2022/03/01 14:00:08;;;;;;;36.22;22.00;;;7.10;99.90;;;;;;5035749;28;20053;-59
2022/03/01 14:02:34;;;;;;;34.08;22.90;;;7.10;99.90;;;;;;5074309;28;20130;-59
2022/03/01 14:05:01;;;;;;;;;;;7.10;99.90;;;;;;5044732;28;20049;-59
2022/03/01 14:07:26;;;;;;;38.75;22.10;;;7.10;99.90;;;;;;5037720;28;19925;-58
2022/03/01 14:09:53;;;;;;;34.15;22.23;;;7.20;99.90;;;;;;5034770;28;20037;-58
2022/03/01 14:12:33;;;;;;;32.63;21.58;;;7.10;99.90;;;;;;5042965;28;20045;-59
2022/03/01 14:14:59;;;;;;;32.22;21.23;;;7.10;99.90;;;;;;5042481;28;20129;-58
2022/03/01 14:17:25;;;;;;;32.70;21.80;;;7.10;99.90;;;;;;5042495;28;20560;-58
2022/03/01 14:19:55;;;;;;;34.08;22.65;;;7.10;99.90;;;;;;5045098;28;20393;-58
2022/03/01 14:22:24;;;;;;;35.25;21.90;;;7.10;99.90;;;;;;5044762;28;20042;-58
2022/03/01 14:24:56;;;;;;;34.67;21.83;;;7.10;99.90;;;;;;5051785;28;20464;-59
2022/03/01 14:27:23;;;;;;;33.97;22.02;;;7.00;99.90;;;;;;5054821;28;20048;-60
2022/03/01 14:29:49;;;;;;;32.10;19.88;;;;;;;;;;5087328;28;20056;-59
2022/03/01 14:32:15;;;;;;;33.72;21.63;;;7.00;99.90;;;;;;5051176;28;20045;-56
2022/03/01 14:34:41;;;;;;;38.78;22.10;;;7.00;99.90;;;;;;5044050;28;20041;-57
2022/03/01 14:37:08;;;;;;;32.15;21.23;;;7.00;99.90;;;;;;5043459;28;20102;-57
2022/03/01 14:39:34;;;;;;;33.72;21.25;;;7.00;99.90;;;;;;5045102;28;20082;-57
2022/03/01 14:42:00;;;;;;;30.20;20.73;;;7.10;99.90;;;;;;5043897;28;20083;-58
2022/03/01 14:44:26;;;;;;;;;;;7.10;99.90;;;;;;5043888;28;20448;-59
2022/03/01 14:46:52;;;;;;;30.98;20.40;;;7.10;99.90;;;;;;5044926;28;19921;-55
2022/03/01 14:49:17;;;;;;;30.73;20.38;;;7.20;99.90;;;;;;5034516;28;20167;-58
2022/03/01 14:51:43;;;;;;;29.70;20.15;;;7.20;99.90;;;;;;5034246;28;20211;-58
2022/03/01 14:54:10;;;;;;;32.15;20.20;;;7.30;99.90;;;;;;5034005;28;20136;-58
2022/03/01 14:56:38;;;;;;;31.77;20.38;;;7.30;99.90;;;;;;5033795;28;20045;-58
2022/03/01 14:59:05;;;;;;;31.73;21.02;;;7.20;99.90;;;;;;5033300;28;20057;-58
2022/03/01 15:01:31;;;;;;;33.63;20.25;;;7.20;99.90;;;;;;5033781;28;20486;-58
2022/03/01 15:03:57;;;;;;;29.55;20.77;;;7.20;99.90;;;;;;5016056;28;20053;-58
2022/03/01 15:06:23;;;;;;;31.73;21.55;;;7.20;99.90;;;;;;5034053;28;20100;-58
2022/03/01 15:08:49;;;;;;;30.98;20.40;;;7.20;99.90;;;;;;5033731;28;20088;-58
2022/03/01 15:11:15;;;;;;;31.23;19.35;;;7.20;99.90;;;;;;5034143;28;20095;-57
2022/03/01 15:13:41;;;;;;;28.20;19.83;;;7.20;99.90;;;;;;5034136;28;20049;-58
2022/03/01 15:16:07;;;;;;;;;;;7.20;99.90;;;;;;5033983;28;20516;-58
2022/03/01 15:18:33;;;;;;;31.83;20.48;;;7.20;99.90;;;;;;5033902;28;19921;-58
2022/03/01 15:20:59;;;;;;;30.38;20.40;;;7.10;99.90;;;;;;5033899;28;20052;-58
2022/03/01 15:23:26;;;;;;;29.05;20.30;;;7.20;99.90;;;;;;5033900;28;20075;-58
2022/03/01 15:25:52;;;;;;;29.83;19.83;;;7.20;99.90;;;;;;5033942;28;20056;-58
2022/03/01 15:28:18;;;;;;;27.58;19.98;;;7.20;99.90;;;;;;5033746;28;20539;-58
2022/03/01 15:30:44;;;;;;;29.75;20.63;;;7.20;99.90;;;;;;5034349;28;20084;-58
2022/03/01 15:33:10;;;;;;;29.73;20.63;;;7.10;99.90;;;;;;5033781;28;20397;-58
2022/03/01 15:35:37;;;;;;;30.02;20.40;;;7.10;99.90;;;;;;5032821;28;20056;-60
2022/03/01 15:38:04;;;;;;;30.25;21.30;;;7.10;99.90;;;;;;5033715;28;20124;-58
2022/03/01 15:40:30;;;;;;;31.85;20.60;;;7.10;99.90;;;;;;5032642;28;20049;-58
2022/03/01 15:42:56;;;;;;;;;;;7.10;99.90;;;;;;5033986;28;20049;-58
2022/03/01 15:45:22;;;;;;;29.38;19.63;;;7.10;99.90;;;;;;5033539;28;19928;-58
2022/03/01 15:47:48;;;;;;;30.60;19.58;;;7.10;99.90;;;;;;5034118;28;20053;-58
2022/03/01 15:50:14;;;;;;;36.78;21.48;;;7.00;99.90;;;;;;5033603;28;20047;-58
2022/03/01 15:52:41;;;;;;;28.55;19.77;;;7.00;99.90;;;;;;5033539;28;20128;-57
2022/03/01 15:55:08;;;;;;;28.67;20.27;;;7.00;99.90;;;;;;5033322;28;20057;-58
2022/03/01 15:57:34;;;;;;;29.17;19.48;;;7.00;99.90;;;;;;5032393;28;20049;-58
2022/03/01 16:00:04;;;;;;;28.98;19.90;;;7.00;99.90;;;;;;5031728;28;20057;-58
2022/03/01 16:02:31;;;;;;;28.42;19.90;;;7.00;99.90;;;;;;5033428;28;20464;-57
2022/03/01 16:04:56;;;;;;;28.77;20.13;;;7.00;99.90;;;;;;5033310;28;20132;-59
2022/03/01 16:07:22;;;;;;;29.08;19.58;;;7.00;99.90;;;;;;5033187;28;20084;-58
2022/03/01 16:09:48;;;;;;;26.52;19.70;;;7.00;99.90;;;;;;5041177;28;20080;-57
2022/03/01 16:12:14;;;;;;;30.48;19.83;;;7.00;99.90;;;;;;5038268;28;20389;-58
2022/03/01 16:14:39;;;;;;;26.85;18.77;;;7.00;99.90;;;;;;5038453;28;20057;-58
2022/03/01 16:17:09;;;;;;;29.08;19.88;;;6.90;99.90;;;;;;5033402;28;20045;-58
2022/03/01 16:19:37;;;;;;;29.45;19.50;;;6.90;99.90;;;;;;5033049;28;20124;-58
2022/03/01 16:22:04;;;;;;;29.73;20.40;;;6.90;99.90;;;;;;5037225;28;20068;-58
2022/03/01 16:24:30;;;;;;;29.88;19.13;;;7.00;99.90;;;;;;5037242;28;20052;-59
2022/03/01 16:26:56;;;;;;;31.35;20.15;;;6.90;99.90;;;;;;5045892;28;20045;-60
2022/03/01 16:29:22;;;;;;;32.55;20.48;;;6.90;99.90;;;;;;5045573;28;20382;-58
2022/03/01 16:31:47;;;;;;;29.35;20.85;;;6.80;99.90;;;;;;5047252;28;20076;-58
2022/03/01 16:34:13;;;;;;;31.55;20.50;;;6.80;99.90;;;;;;5046512;28;20045;-58
2022/03/01 16:36:39;;;;;;;31.88;20.27;;;6.80;99.90;;;;;;5044461;28;20481;-57
2022/03/01 16:39:07;;;;;;;30.90;20.80;;;6.70;99.90;;;;;;5047274;28;20037;-57
2022/03/01 16:41:34;;;;;;;29.52;20.33;;;6.70;99.90;;;;;;5046135;28;20080;-58
2022/03/01 16:43:59;;;;;;;29.55;20.45;;;6.70;99.90;;;;;;5050964;28;20053;-58
2022/03/01 16:46:25;;;;;;;32.05;19.83;;;6.70;99.90;;;;;;5055650;28;20090;-58
2022/03/01 16:48:55;;;;;;;29.15;20.17;;;6.70;99.90;;;;;;5056861;28;20048;-60
2022/03/01 16:51:21;;;;;;;29.40;20.70;;;6.70;99.90;;;;;;5057031;28;20052;-57
2022/03/01 16:53:48;;;;;;;31.58;21.67;;;6.60;99.90;;;;;;5057108;28;20523;-58
2022/03/01 16:56:14;;;;;;;29.40;21.27;;;6.60;99.90;;;;;;5056464;28;20045;-58
2022/03/01 16:58:39;;;;;;;31.27;20.52;;;6.60;99.90;;;;;;5055940;28;20389;-57
2022/03/01 17:01:05;;;;;;;27.95;20.33;;;6.50;99.90;;;;;;5056887;28;20049;-58
2022/03/01 17:03:32;;;;;;;35.20;21.20;;;6.50;99.90;;;;;;5056656;28;20040;-58
2022/03/01 17:05:58;;;;;;;;;;;6.50;99.90;;;;;;5056801;28;20103;-58
2022/03/01 17:08:24;;;;;;;32.30;20.42;;;6.50;99.90;;;;;;5056268;28;19920;-58
2022/03/01 17:10:50;;;;;;;;;;;6.50;99.90;;;;;;5057271;28;20193;-58
2022/03/01 17:13:16;;;;;;;32.15;21.23;;;6.50;99.90;;;;;;5055784;28;20412;-57
2022/03/01 17:15:43;;;;;;;31.75;22.08;;;6.50;99.90;;;;;;5056114;28;20068;-58
2022/03/01 17:18:09;;;;;;;30.63;20.60;;;6.50;99.90;;;;;;5088777;28;20045;-58
2022/03/01 17:20:36;;;;;;;;;;;6.40;99.90;;;;;;5056496;28;20048;-59
2022/03/01 17:23:02;;;;;;;35.42;21.90;;;6.40;99.90;;;;;;5056091;28;20007;-58
2022/03/01 17:25:29;;;;;;;30.63;21.30;;;6.40;99.90;;;;;;5056085;28;20510;-58
2022/03/01 17:27:55;;;;;;;32.35;20.90;;;6.40;99.90;;;;;;5055865;28;20051;-58
2022/03/01 17:30:21;;;;;;;30.52;21.33;;;6.40;99.90;;;;;;5055804;28;20096;-58
2022/03/01 17:32:47;;;;;;;;;;;6.40;99.90;;;;;;5055931;28;20056;-57
2022/03/01 17:35:12;;;;;;;35.60;22.58;;;6.40;99.90;;;;;;5055767;28;19927;-58
2022/03/01 17:37:39;;;;;;;37.17;22.48;;;6.40;99.90;;;;;;5055939;28;20041;-58
2022/03/01 17:40:05;;;;;;;;;;;6.30;99.90;;;;;;5056061;28;20118;-58
2022/03/01 17:42:31;;;;;;;33.78;23.05;;;6.30;99.90;;;;;;5054955;28;19921;-58
2022/03/01 17:44:57;;;;;;;32.08;22.63;;;6.30;99.90;;;;;;5055571;28;20102;-58
2022/03/01 17:47:24;;;;;;;31.08;21.92;;;6.30;99.90;;;;;;5055484;28;20041;-58
2022/03/01 17:49:51;;;;;;;32.92;22.52;;;6.30;99.90;;;;;;5056283;28;20122;-58
2022/03/01 17:52:17;;;;;;;29.58;21.00;;;6.20;99.90;;;;;;5049426;28;20149;-59
2022/03/01 17:54:43;;;;;;;;;;;6.20;99.90;;;;;;5055891;28;20584;-58
2022/03/01 17:57:09;;;;;;;31.17;22.70;;;6.20;99.90;;;;;;5053066;28;19921;-58
2022/03/01 17:59:35;;;;;;;33.92;22.02;;;6.20;99.90;;;;;;5040274;28;20059;-60
2022/03/01 18:02:01;;;;;;;30.48;22.02;;;6.20;99.90;;;;;;5034100;28;20046;-59
2022/03/01 18:04:27;;;;;;;31.60;22.38;;;6.20;99.90;;;;;;5033120;28;20176;-59
2022/03/01 18:06:52;;;;;;;29.88;21.67;;;6.10;99.90;;;;;;5034435;28;20093;-58
2022/03/01 18:09:19;;;;;;;33.88;23.13;;;6.20;99.90;;;;;;5035222;28;20041;-58
2022/03/01 18:11:45;;;;;;;33.20;22.67;;;6.10;99.90;;;;;;5034193;28;20049;-58
2022/03/01 18:14:11;;;;;;;34.70;22.55;;;6.10;99.90;;;;;;5033261;28;20494;-58
2022/03/01 18:16:37;;;;;;;;;;;6.10;99.90;;;;;;5034774;28;20049;-59
2022/03/01 18:19:03;;;;;;;40.13;23.88;;;6.00;99.90;;;;;;5035031;28;19928;-58
2022/03/01 18:21:31;;;;;;;35.35;23.50;;;6.00;99.90;;;;;;5034228;28;20059;-59
2022/03/01 18:23:58;;;;;;;34.03;23.00;;;6.00;99.90;;;;;;5035026;28;20057;-60
2022/03/01 18:26:24;;;;;;;32.22;22.73;;;6.00;99.90;;;;;;5034869;28;20049;-59
2022/03/01 18:28:51;;;;;;;36.35;23.73;;;6.00;99.90;;;;;;5033788;28;20081;-59
2022/03/01 18:31:17;;;;;;;35.38;22.98;;;6.00;99.90;;;;;;5034715;28;20092;-58
2022/03/01 18:33:45;;;;;;;33.42;23.13;;;6.00;99.90;;;;;;5034446;28;20482;-58
2022/03/01 18:36:11;;;;;;;35.80;24.10;;;6.00;99.90;;;;;;5034125;28;20466;-58
2022/03/01 18:38:36;;;;;;;36.72;24.58;;;6.10;99.90;;;;;;5034396;28;20132;-60
2022/03/01 18:41:03;;;;;;;34.50;24.08;;;6.00;99.90;;;;;;5033662;28;20481;-59
2022/03/01 18:43:28;;;;;;;35.75;24.60;;;6.00;99.90;;;;;;5033489;28;20489;-59
2022/03/01 18:45:54;;;;;;;35.85;25.08;;;6.00;99.90;;;;;;5033671;28;20053;-59
2022/03/01 18:48:22;;;;;;;36.25;25.60;;;6.00;99.90;;;;;;5034822;28;20401;-59
2022/03/01 18:50:48;;;;;;;39.20;25.98;;;6.00;99.90;;;;;;5034235;28;20484;-59
2022/03/01 18:53:15;;;;;;;41.88;26.38;;;5.90;99.90;;;;;;5034299;28;20551;-59
2022/03/01 18:55:41;;;;;;;39.92;26.90;;;5.80;99.90;;;;;;5034090;28;20072;-59
2022/03/01 18:58:07;;;;;;;39.53;26.60;;;5.80;99.90;;;;;;5040857;28;20057;-60
2022/03/01 19:00:34;;;;;;;41.78;26.77;;;5.80;99.90;;;;;;5043236;28;20056;-58
2022/03/01 19:03:03;;;;;;;40.15;26.55;;;5.80;99.90;;;;;;5046937;28;20424;-59
2022/03/01 19:05:30;;;;;;;40.35;26.23;;;5.80;99.90;;;;;;5042822;28;20037;-58
2022/03/01 19:07:56;;;;;;;39.47;26.48;;;5.80;99.90;;;;;;5043222;28;20045;-58
2022/03/01 19:10:22;;;;;;;38.47;25.00;;;5.70;99.90;;;;;;5042612;28;20041;-58
2022/03/01 19:12:48;;;;;;;;;;;5.70;99.90;;;;;;5042942;28;20056;-58
2022/03/01 19:15:15;;;;;;;39.90;26.60;;;5.70;99.90;;;;;;5044086;28;19921;-58
2022/03/01 19:17:41;;;;;;;38.75;25.95;;;5.60;99.90;;;;;;5080502;28;20059;-59
2022/03/01 19:20:07;;;;;;;;;;;5.60;99.90;;;;;;5086647;28;20049;-60
2022/03/01 19:22:33;;;;;;;37.25;25.92;;;5.50;99.90;;;;;;5053551;28;19925;-59
2022/03/01 19:24:59;;;;;;;36.45;25.35;;;5.50;99.90;;;;;;5053769;28;20089;-59
2022/03/01 19:27:25;;;;;;;36.50;25.20;;;5.50;99.90;;;;;;5045302;28;20052;-58
2022/03/01 19:29:51;;;;;;;40.08;25.40;;;5.40;99.90;;;;;;5043212;28;20091;-59
2022/03/01 19:32:17;;;;;;;37.55;25.42;;;5.40;99.90;;;;;;5042273;28;20049;-58
2022/03/01 19:34:44;;;;;;;;;;;5.40;99.90;;;;;;5041031;28;20440;-63
2022/03/01 19:37:10;;;;;;;36.20;25.08;;;5.40;99.90;;;;;;5041664;28;20412;-59
2022/03/01 19:39:36;;;;;;;39.67;26.35;;;5.30;99.90;;;;;;5043506;28;20033;-60
2022/03/01 19:42:07;;;;;;;41.67;27.15;;;5.30;99.90;;;;;;5051966;28;20076;-58
2022/03/01 19:44:33;;;;;;;39.20;25.92;;;5.30;99.90;;;;;;5052624;28;20053;-58
2022/03/01 19:46:59;;;;;;;42.97;28.33;;;5.30;99.90;;;;;;5053292;28;20087;-59
2022/03/01 19:49:25;;;;;;;37.35;25.60;;;5.20;99.90;;;;;;5047380;28;20044;-58
2022/03/01 19:51:50;;;;;;;40.80;27.35;;;5.20;99.90;;;;;;5041896;28;20567;-58
2022/03/01 19:54:16;;;;;;;40.25;27.33;;;5.20;99.90;;;;;;5042875;28;20087;-60
2022/03/01 19:56:42;;;;;;;40.15;26.95;;;5.30;99.90;;;;;;5035920;28;20067;-59
2022/03/01 19:59:08;;;;;;;38.17;26.10;;;5.30;99.90;;;;;;5038460;28;20053;-59
2022/03/01 20:01:34;;;;;;;40.65;26.17;;;5.30;99.90;;;;;;5038172;28;20057;-58
2022/03/01 20:04:00;;;;;;;40.03;27.00;;;5.20;99.90;;;;;;5043063;28;20056;-59
2022/03/01 20:06:27;;;;;;;38.53;25.98;;;5.20;99.90;;;;;;5043504;28;20045;-59
2022/03/01 20:08:55;;;;;;;42.90;28.15;;;5.20;99.90;;;;;;5041698;28;20152;-58
2022/03/01 20:11:21;;;;;;;39.25;26.05;;;5.20;99.90;;;;;;5042904;28;20052;-58
2022/03/01 20:13:47;;;;;;;39.85;27.20;;;5.10;99.90;;;;;;5043559;28;20420;-60
2022/03/01 20:16:15;;;;;;;38.33;25.80;;;5.10;99.90;;;;;;5057315;28;20116;-58
2022/03/01 20:18:42;;;;;;;39.42;26.80;;;5.10;99.90;;;;;;5042430;28;20511;-58
2022/03/01 20:21:08;;;;;;;39.67;26.73;;;5.20;99.90;;;;;;5032004;28;20460;-58
2022/03/01 20:23:34;;;;;;;;;;;5.20;99.90;;;;;;5032362;28;20052;-58
2022/03/01 20:26:04;;;;;;;37.47;25.63;;;5.10;99.90;;;;;;5033160;28;19921;-59
2022/03/01 20:28:30;;;;;;;41.92;27.20;;;5.10;99.90;;;;;;5032891;28;20049;-59
2022/03/01 20:30:56;;;;;;;43.28;27.80;;;5.10;99.90;;;;;;5032901;28;20132;-59
2022/03/01 20:33:22;;;;;;;42.60;27.50;;;5.10;99.90;;;;;;5033115;28;20493;-59
2022/03/01 20:35:48;;;;;;;41.42;27.67;;;5.10;99.90;;;;;;5033131;28;20095;-59
2022/03/01 20:38:15;;;;;;;39.75;26.40;;;5.10;99.90;;;;;;5033313;28;20064;-60
2022/03/01 20:40:41;;;;;;;39.28;26.42;;;5.10;99.90;;;;;;5032647;28;20086;-59
2022/03/01 20:43:07;;;;;;;37.80;26.45;;;5.10;99.90;;;;;;5033199;28;20057;-60
2022/03/01 20:45:33;;;;;;;38.75;26.63;;;5.00;99.90;;;;;;5032003;28;20049;-59
2022/03/01 20:47:58;;;;;;;39.60;26.50;;;5.00;99.90;;;;;;5032031;28;20112;-59